createdAt,value
2023-03-20T00:02:41.755Z,517.00
2023-03-20T00:06:41.716Z,515.00
2023-03-20T00:10:41.675Z,524.00
2023-03-20T00:14:41.638Z,518.00
2023-03-20T00:18:41.586Z,513.00
2023-03-20T00:22:41.549Z,513.00
2023-03-20T00:26:41.523Z,524.00
2023-03-20T00:30:41.488Z,515.00
2023-03-20T00:34:41.546Z,520.00
2023-03-20T00:38:41.713Z,518.00
2023-03-20T00:42:41.874Z,518.00
2023-03-20T00:46:42.080Z,523.00
2023-03-20T00:50:42.216Z,516.00
2023-03-20T00:54:42.386Z,511.00
2023-03-20T00:58:42.533Z,511.00
2023-03-20T01:02:42.739Z,519.00
2023-03-20T01:06:42.924Z,516.00
2023-03-20T01:10:43.084Z,515.00
2023-03-20T01:14:43.290Z,515.00
2023-03-20T01:18:43.432Z,515.00
2023-03-20T01:22:43.638Z,511.00
2023-03-20T01:26:43.834Z,513.00
2023-03-20T01:30:44.003Z,509.00
2023-03-20T01:34:44.159Z,514.00
2023-03-20T01:38:44.386Z,505.00
2023-03-20T01:42:44.518Z,511.00
2023-03-20T01:46:44.710Z,507.00
2023-03-20T01:50:44.862Z,506.00
2023-03-20T01:54:45.094Z,508.00
2023-03-20T01:58:45.270Z,504.00
2023-03-20T02:02:45.434Z,507.00
2023-03-20T02:06:45.645Z,505.00
2023-03-20T02:10:45.804Z,507.00
2023-03-20T02:14:46.048Z,505.00
2023-03-20T02:18:46.176Z,509.00
2023-03-20T02:22:46.343Z,508.00
2023-03-20T02:26:46.494Z,507.00
2023-03-20T02:30:46.724Z,510.00
2023-03-20T02:34:46.846Z,506.00
2023-03-20T02:38:47.086Z,513.00
2023-03-20T02:42:47.195Z,510.00
2023-03-20T02:46:47.442Z,509.00
2023-03-20T02:50:47.605Z,503.00
2023-03-20T02:54:47.808Z,506.00
2023-03-20T02:58:47.958Z,506.00
2023-03-20T03:02:48.237Z,508.00
2023-03-20T03:06:48.334Z,505.00
2023-03-20T03:10:48.558Z,508.00
2023-03-20T03:14:48.748Z,508.00
2023-03-20T03:18:48.999Z,505.00
2023-03-20T03:22:49.129Z,509.00
2023-03-20T03:26:49.343Z,510.00
2023-03-20T03:30:49.532Z,505.00
2023-03-20T03:34:49.711Z,505.00
2023-03-20T03:38:49.898Z,506.00
2023-03-20T03:42:50.104Z,507.00
2023-03-20T03:46:50.344Z,506.00
2023-03-20T03:50:50.483Z,507.00
2023-03-20T03:54:50.670Z,506.00
2023-03-20T03:58:50.868Z,504.00
2023-03-20T04:02:51.057Z,502.00
2023-03-20T04:06:51.533Z,504.00
2023-03-20T04:10:51.467Z,503.00
2023-03-20T04:14:51.693Z,505.00
2023-03-20T04:18:51.871Z,508.00
2023-03-20T04:22:52.071Z,512.00
2023-03-20T04:26:52.297Z,506.00
2023-03-20T04:30:52.492Z,505.00
2023-03-20T04:34:52.707Z,511.00
2023-03-20T04:38:54.553Z,509.00
2023-03-20T04:42:52.867Z,505.00
2023-03-20T04:46:52.857Z,508.00
2023-03-20T04:50:52.802Z,505.00
2023-03-20T04:54:52.806Z,510.00
2023-03-20T04:58:52.696Z,509.00
2023-03-20T05:02:52.672Z,509.00
2023-03-20T05:06:52.664Z,506.00
2023-03-20T05:10:52.608Z,510.00
2023-03-20T05:14:52.563Z,507.00
2023-03-20T05:18:52.552Z,504.00
2023-03-20T05:22:52.610Z,504.00
2023-03-20T05:26:52.831Z,505.00
2023-03-20T05:30:53.099Z,508.00
2023-03-20T05:34:53.264Z,504.00
2023-03-20T05:38:53.472Z,502.00
2023-03-20T05:42:53.684Z,505.00
2023-03-20T05:46:53.895Z,507.00
2023-03-20T05:50:54.084Z,500.00
2023-03-20T05:54:54.323Z,510.00
2023-03-20T05:58:54.288Z,539.00
2023-03-20T06:02:54.313Z,549.00
2023-03-20T06:06:54.189Z,576.00
2023-03-20T06:10:54.163Z,588.00
2023-03-20T06:14:54.191Z,592.00
2023-03-20T06:18:54.117Z,620.00
2023-03-20T06:22:54.058Z,642.00
2023-03-20T06:26:54.029Z,644.00
2023-03-20T06:30:54.039Z,727.00
2023-03-20T06:34:54.098Z,711.00
2023-03-20T06:38:54.744Z,833.00
2023-03-20T06:42:54.771Z,893.00
2023-03-20T06:46:54.919Z,977.00
2023-03-20T06:50:54.890Z,1120.00
2023-03-20T06:54:55.267Z,1365.00
2023-03-20T06:58:55.230Z,1463.00
2023-03-20T07:02:55.744Z,1560.00
2023-03-20T07:06:55.369Z,1662.00
2023-03-20T07:10:55.434Z,1720.00
2023-03-20T07:14:55.773Z,1750.00
2023-03-20T07:18:55.542Z,1780.00
2023-03-20T07:22:55.588Z,1652.00
2023-03-20T07:26:55.617Z,1711.00
2023-03-20T07:30:55.659Z,1764.00
2023-03-20T07:34:55.653Z,1785.00
2023-03-20T07:38:55.754Z,1829.00
2023-03-20T07:42:55.701Z,1911.00
2023-03-20T07:46:55.808Z,1944.00
2023-03-20T07:50:56.268Z,1939.00
2023-03-20T07:54:56.284Z,1996.00
2023-03-20T07:58:56.290Z,2048.00
2023-03-20T08:02:55.996Z,2059.00
2023-03-20T08:06:55.858Z,2040.00
2023-03-20T08:10:56.266Z,2050.00
2023-03-20T08:14:55.827Z,2059.00
2023-03-20T08:18:55.792Z,2112.00
2023-03-20T08:22:55.825Z,2073.00
2023-03-20T08:26:55.763Z,2069.00
2023-03-20T08:30:55.720Z,2115.00
2023-03-20T08:34:55.619Z,2112.00
2023-03-20T08:38:56.146Z,2188.00
2023-03-20T08:42:56.325Z,2164.00
2023-03-20T08:46:56.295Z,2048.00
2023-03-20T08:50:56.293Z,1922.00
2023-03-20T08:54:56.339Z,1793.00
2023-03-20T08:58:56.364Z,1833.00
2023-03-20T09:02:56.337Z,1785.00
2023-03-20T09:06:56.283Z,1677.00
2023-03-20T09:10:56.192Z,1669.00
2023-03-20T09:14:56.144Z,1550.00
2023-03-20T09:18:56.140Z,1502.00
2023-03-20T09:22:56.291Z,1410.00
2023-03-20T09:26:56.045Z,1289.00
2023-03-20T09:30:56.302Z,1112.00
2023-03-20T09:34:56.312Z,1142.00
2023-03-20T09:38:56.344Z,1190.00
2023-03-20T09:42:56.302Z,1659.00
2023-03-20T09:47:08.726Z,1753.00
2023-03-20T09:50:57.337Z,1517.00
2023-03-20T09:54:55.821Z,1765.00
2023-03-20T09:58:55.813Z,1950.00
2023-03-20T10:02:55.775Z,1992.00
2023-03-20T10:06:55.986Z,2080.00
2023-03-20T10:10:55.943Z,2148.00
2023-03-20T10:14:56.312Z,2236.00
2023-03-20T10:18:56.328Z,2215.00
2023-03-20T10:22:55.850Z,2258.00
2023-03-20T10:26:55.836Z,2250.00
2023-03-20T10:30:55.799Z,2273.00
2023-03-20T10:34:55.831Z,2281.00
2023-03-20T10:38:55.822Z,2276.00
2023-03-20T10:42:55.689Z,2300.00
2023-03-20T10:46:55.880Z,2212.00
2023-03-20T10:50:55.820Z,2153.00
2023-03-20T10:54:55.847Z,2100.00
2023-03-20T10:58:55.861Z,2055.00
2023-03-20T11:02:55.506Z,2018.00
2023-03-20T11:06:55.474Z,1915.00
2023-03-20T11:10:58.276Z,1795.00
2023-03-20T11:14:55.817Z,1788.00
2023-03-20T11:18:55.392Z,1734.00
2023-03-20T11:22:55.319Z,1722.00
2023-03-20T11:26:55.297Z,1719.00
2023-03-20T11:31:04.402Z,1701.00
2023-03-20T11:34:56.382Z,1590.00
2023-03-20T11:38:55.230Z,1635.00
2023-03-20T11:42:55.356Z,1345.00
2023-03-20T11:46:55.365Z,1535.00
2023-03-20T11:50:55.353Z,1570.00
2023-03-20T11:54:55.087Z,1580.00
2023-03-20T11:58:55.071Z,1628.00
2023-03-20T12:02:55.421Z,1632.00
2023-03-20T12:06:55.349Z,1623.00
2023-03-20T12:10:55.345Z,1635.00
2023-03-20T12:14:54.938Z,1641.00
2023-03-20T12:18:54.882Z,1663.00
2023-03-20T12:22:54.890Z,1662.00
2023-03-20T12:26:54.900Z,1704.00
2023-03-20T12:30:54.959Z,1697.00
2023-03-20T12:34:54.767Z,1673.00
2023-03-20T12:38:54.885Z,1563.00
2023-03-20T12:42:54.771Z,1585.00
2023-03-20T12:46:54.904Z,1528.00
2023-03-20T12:50:55.080Z,1338.00
2023-03-20T12:54:55.382Z,1258.00
2023-03-20T12:58:55.355Z,1340.00
2023-03-20T13:02:55.578Z,1200.00
2023-03-20T13:06:55.749Z,965.00
2023-03-20T13:10:56.364Z,853.00
2023-03-20T13:14:56.405Z,597.00
2023-03-20T13:18:55.954Z,523.00
2023-03-20T13:22:55.912Z,478.00
2023-03-20T13:26:55.834Z,500.00
2023-03-20T13:30:55.805Z,578.00
2023-03-20T13:34:55.757Z,541.00
2023-03-20T13:38:55.708Z,525.00
2023-03-20T13:42:55.668Z,500.00
2023-03-20T13:46:55.697Z,556.00
2023-03-20T13:50:55.588Z,522.00
2023-03-20T13:54:58.539Z,537.00
2023-03-20T13:58:55.546Z,550.00
2023-03-20T14:02:55.505Z,599.00
2023-03-20T14:06:55.446Z,509.00
2023-03-20T14:10:55.449Z,521.00
2023-03-20T14:14:55.380Z,514.00
2023-03-20T14:18:55.363Z,500.00
2023-03-20T14:22:55.329Z,489.00
2023-03-20T14:26:55.281Z,509.00
2023-03-20T14:30:55.289Z,517.00
2023-03-20T14:34:55.320Z,601.00
2023-03-20T14:38:55.371Z,586.00
2023-03-20T14:42:55.221Z,557.00
2023-03-20T14:46:55.190Z,560.00
2023-03-20T14:50:55.157Z,581.00
2023-03-20T14:54:55.097Z,510.00
2023-03-20T14:58:55.056Z,500.00
2023-03-20T15:02:55.014Z,575.00
2023-03-20T15:06:55.046Z,521.00
2023-03-20T15:10:55.425Z,511.00
2023-03-20T15:14:54.910Z,569.00
2023-03-20T15:18:54.884Z,692.00
2023-03-20T15:22:57.648Z,650.00
2023-03-20T15:26:54.870Z,646.00
2023-03-20T15:30:54.836Z,620.00
2023-03-20T15:34:54.914Z,693.00
2023-03-20T15:38:54.779Z,891.00
2023-03-20T15:42:54.754Z,918.00
2023-03-20T15:46:54.685Z,962.00
2023-03-20T15:50:54.650Z,942.00
2023-03-20T15:54:54.624Z,1052.00
2023-03-20T15:58:54.607Z,1067.00
2023-03-20T16:02:54.555Z,1019.00
2023-03-20T16:06:54.518Z,960.00
2023-03-20T16:10:54.490Z,1142.00
2023-03-20T16:14:54.447Z,1211.00
2023-03-20T16:18:58.113Z,1200.00
2023-03-20T16:22:54.353Z,1172.00
2023-03-20T16:26:54.349Z,1169.00
2023-03-20T16:30:54.318Z,1165.00
2023-03-20T16:34:54.450Z,1168.00
2023-03-20T16:38:54.596Z,1223.00
2023-03-20T16:42:54.724Z,1142.00
2023-03-20T16:46:54.763Z,1063.00
2023-03-20T16:50:54.659Z,1184.00
2023-03-20T16:54:54.602Z,1276.00
2023-03-20T16:58:56.648Z,1260.00
2023-03-20T17:02:54.692Z,1253.00
2023-03-20T17:06:55.025Z,1344.00
2023-03-20T17:10:54.980Z,1254.00
2023-03-20T17:14:55.009Z,1355.00
2023-03-20T17:18:55.084Z,1328.00
2023-03-20T17:22:55.161Z,1319.00
2023-03-20T17:26:55.184Z,1321.00
2023-03-20T17:30:55.168Z,1345.00
2023-03-20T17:34:55.218Z,1319.00
2023-03-20T17:38:55.239Z,1249.00
2023-03-20T17:42:55.299Z,1330.00
2023-03-20T17:46:58.882Z,1342.00
2023-03-20T17:50:55.353Z,1335.00
2023-03-20T17:54:55.281Z,1333.00
2023-03-20T17:58:55.285Z,1320.00
2023-03-20T18:02:55.236Z,1166.00
2023-03-20T18:06:55.200Z,1164.00
2023-03-20T18:10:55.181Z,1113.00
2023-03-20T18:14:55.111Z,998.00
2023-03-20T18:18:55.097Z,833.00
2023-03-20T18:22:55.023Z,743.00
2023-03-20T18:26:55.029Z,717.00
2023-03-20T18:30:55.037Z,682.00
2023-03-20T18:34:54.932Z,645.00
2023-03-20T18:38:54.921Z,639.00
2023-03-20T18:42:54.895Z,610.00
2023-03-20T18:46:54.949Z,627.00
2023-03-20T18:50:55.154Z,627.00
2023-03-20T18:54:55.284Z,670.00
2023-03-20T18:58:55.482Z,734.00
2023-03-20T19:02:55.644Z,807.00
2023-03-20T19:06:55.804Z,828.00
2023-03-20T19:10:56.007Z,862.00
2023-03-20T19:14:57.060Z,907.00
2023-03-20T19:18:56.214Z,961.00
2023-03-20T19:22:56.185Z,1010.00
2023-03-20T19:26:56.145Z,1004.00
2023-03-20T19:30:56.126Z,944.00
2023-03-20T19:35:38.957Z,926.00
2023-03-20T19:38:57.036Z,927.00
2023-03-20T19:43:02.464Z,901.00
2023-03-20T19:46:56.973Z,878.00
2023-03-20T19:50:55.937Z,796.00
2023-03-20T19:55:02.571Z,703.00
2023-03-20T19:58:56.933Z,704.00
2023-03-20T20:02:56.112Z,662.00
2023-03-20T20:07:17.615Z,645.00
2023-03-20T20:10:56.875Z,650.00
2023-03-20T20:14:55.845Z,654.00
2023-03-20T20:18:55.806Z,681.00
2023-03-20T20:22:56.079Z,692.00
2023-03-20T20:27:13.055Z,726.00
2023-03-20T20:30:56.751Z,743.00
2023-03-20T20:38:56.777Z,676.00
2023-03-20T20:42:56.123Z,657.00
2023-03-20T20:46:55.561Z,664.00
2023-03-20T20:50:55.553Z,642.00
2023-03-20T20:54:55.490Z,646.00
2023-03-20T20:58:55.475Z,633.00
2023-03-20T21:02:55.569Z,621.00
2023-03-20T21:07:09.362Z,623.00
2023-03-20T21:10:56.528Z,634.00
2023-03-20T21:14:55.514Z,645.00
2023-03-20T21:18:55.508Z,657.00
2023-03-20T21:22:55.463Z,660.00
2023-03-20T21:26:55.381Z,640.00
2023-03-20T21:31:22.809Z,635.00
2023-03-20T21:34:56.307Z,600.00
2023-03-20T21:39:08.255Z,584.00
2023-03-20T21:42:56.258Z,570.00
2023-03-20T21:48:00.874Z,569.00
2023-03-20T21:51:49.313Z,558.00
2023-03-20T21:59:43.073Z,565.00
2023-03-20T22:02:59.949Z,532.00
2023-03-20T22:07:32.753Z,526.00
2023-03-20T22:11:56.582Z,532.00
2023-03-20T22:27:46.032Z,499.00
2023-03-20T22:39:28.125Z,501.00
2023-03-20T22:43:51.091Z,508.00
2023-03-20T22:46:55.733Z,476.00
2023-03-20T22:50:54.613Z,504.00
2023-03-20T22:54:54.575Z,501.00
2023-03-20T22:58:54.519Z,517.00
2023-03-20T23:02:57.437Z,515.00
2023-03-20T23:06:55.491Z,520.00
2023-03-20T23:10:54.443Z,549.00
2023-03-20T23:14:54.458Z,549.00
2023-03-20T23:18:54.726Z,542.00
2023-03-20T23:22:54.927Z,544.00
2023-03-20T23:26:55.136Z,532.00
2023-03-20T23:31:09.516Z,526.00
2023-03-20T23:34:56.054Z,532.00
2023-03-20T23:38:55.042Z,552.00
2023-03-20T23:42:55.154Z,555.00
2023-03-20T23:46:55.161Z,553.00
2023-03-20T23:50:55.069Z,558.00
2023-03-20T23:54:55.066Z,573.00
2023-03-20T23:59:05.297Z,538.00
